Hyalite Weather Station

This weather station provides temperature, wind speed, gust or max wind speed, and wind direction at 9982ft near the summit of Flanders Mountain. This data can be used with temperature and precipitation data from the Shower Falls SNOTEL site. If the data has not been updated recently you can view it directly on datagarrison.com

Elevation
9982ft
Jump to table bottom
Date Time Temperature
deg F
RH, % Wind Speed Wind Gust Wind Direction
12/04/22 08:00 23.4 25 15 31 SW - 230
12/04/22 07:00 23.3 23 20 34 SW - 240
12/04/22 06:00 21.9 26 23 36 SW - 244
12/04/22 05:00 21.8 26 23 36 SW - 247
12/04/22 04:00 20.9 28 18 26 SW - 246
12/04/22 03:00 20.3 26 17 24 W - 248
12/04/22 02:00 20.4 26 16 23 W - 253
12/04/22 01:00 18.8 25 14 23 SW - 244
12/04/22 00:00 17.1 30 10 17 SW - 240
12/03/22 23:00 17.5 28 9 14 W - 258
12/03/22 22:00 18.1 24 10 17 W - 257
12/03/22 21:00 17.4 27 13 18 W - 257
12/03/22 20:00 18.0 25 17 30 W - 251
12/03/22 19:00 18.1 24 19 33 W - 257
12/03/22 18:00 17.3 26 20 31 W - 260
12/03/22 17:00 16.7 30 19 31 W - 258
12/03/22 16:00 19.8 25 19 33 W - 256
12/03/22 15:00 18.9 32 21 35 W - 254
12/03/22 14:00 19.8 30 24 41 W - 256
12/03/22 13:00 18.9 36 26 36 W - 257
12/03/22 12:00 17.0 37 22 36 W - 256
12/03/22 11:00 20.1 27 25 38 W - 258
12/03/22 10:00 16.5 34 28 39 W - 260
12/03/22 09:00 15.7 40 26 47 W - 254
12/03/22 08:00 14.6 40 25 42 W - 251
12/03/22 07:00 11.2 43 27 40 W - 256
12/03/22 06:00 9.8 44 27 40 W - 254
12/03/22 05:00 9.3 42 24 33 W - 256
12/03/22 04:00 8.8 39 24 38 SW - 247
12/03/22 03:00 8.7 37 27 37 W - 251
12/03/22 02:00 6.7 42 26 37 W - 254
12/03/22 01:00 6.9 49 30 41 W - 256
12/03/22 00:00 6.0 51 32 45 W - 253
12/02/22 23:00 2.8 51 33 48 W - 248